Time;durP1;ratioP1;P1;durP2;ratioP2;P2;SDS_P1;SDS_P2;PMS_P1;PMS_P2;Temp;Humidity;BMP_temperature;BMP_pressure;BME280_temperature;BME280_humidity;BME280_pressure;Samples;Min_cycle;Max_cycle;Signal;HPM_P1;HPM_P2
2021/07/02 00:01:19;;;;;;;6.43;3.42;;;563.30;2432.00;;;;;;5033509;28;20064;-73
2021/07/02 00:03:44;;;;;;;5.55;3.22;;;563.30;2432.00;;;;;;5033227;28;20105;-73
2021/07/02 00:06:10;;;;;;;6.00;3.55;;;563.20;2432.00;;;;;;5033367;28;20021;-74
2021/07/02 00:08:36;;;;;;;9.25;3.20;;;538.50;2406.40;;;;;;5033329;28;20381;-73
2021/07/02 00:11:04;;;;;;;6.85;3.42;;;538.50;2406.40;;;;;;5033248;28;20505;-72
2021/07/02 00:13:29;;;;;;;5.22;3.83;;;538.40;2406.40;;;;;;5033268;28;20038;-73
2021/07/02 00:15:55;;;;;;;6.93;3.90;;;538.40;2406.40;;;;;;5038537;28;20099;-73
2021/07/02 00:18:21;;;;;;;5.65;3.60;;;538.20;2406.40;;;;;;5038719;28;20048;-72
2021/07/02 00:20:46;;;;;;;6.15;3.67;;;538.20;2406.40;;;;;;5039464;28;20018;-74
2021/07/02 00:23:12;;;;;;;10.68;4.18;;;538.00;2406.40;;;;;;5035823;28;20104;-73
2021/07/02 00:25:39;;;;;;;4.57;4.18;;;537.90;2406.40;;;;;;5032891;28;20025;-73
2021/07/02 00:28:06;;;;;;;7.45;4.05;;;537.80;2406.40;;;;;;5015411;28;20029;-73
2021/07/02 00:30:33;;;;;;;8.30;4.20;;;537.60;2406.40;;;;;;5032964;28;20359;-74
2021/07/02 00:32:58;;;;;;;4.85;3.47;;;537.60;2406.40;;;;;;5032793;28;20489;-73
2021/07/02 00:35:24;;;;;;;5.25;3.25;;;512.90;2380.80;;;;;;5033051;28;20026;-73
2021/07/02 00:37:50;;;;;;;7.75;3.65;;;537.60;2406.40;;;;;;5032839;28;20022;-76
2021/07/02 00:40:16;;;;;;;3.67;3.00;;;537.60;2406.40;;;;;;5033104;28;20108;-73
2021/07/02 00:42:42;;;;;;;6.18;3.10;;;512.90;2380.80;;;;;;5033230;28;20064;-73
2021/07/02 00:45:08;;;;;;;9.57;5.43;;;512.90;2380.80;;;;;;5033524;28;20042;-72
2021/07/02 00:47:34;;;;;;;5.05;4.35;;;512.80;2380.80;;;;;;5032928;28;20031;-77
2021/07/02 00:49:59;;;;;;;7.20;4.65;;;512.70;2380.80;;;;;;5032743;28;20053;-74
2021/07/02 00:52:25;;;;;;;6.50;4.38;;;512.60;2380.80;;;;;;5032469;28;20505;-73
2021/07/02 00:54:54;;;;;;;5.28;3.75;;;512.50;2380.80;;;;;;5032980;28;20053;-73
2021/07/02 00:57:23;;;;;;;6.18;4.90;;;512.50;2380.80;;;;;;5032806;28;20052;-73
2021/07/02 00:59:49;;;;;;;5.80;4.13;;;512.60;2380.80;;;;;;5032701;28;20022;-73
2021/07/02 01:02:16;;;;;;;5.70;3.88;;;512.70;2380.80;;;;;;5044334;28;20036;-74
2021/07/02 01:04:44;;;;;;;5.55;3.80;;;512.70;2380.80;;;;;;5050150;28;20017;-73
2021/07/02 01:07:13;;;;;;;5.63;4.18;;;512.60;2380.80;;;;;;5050466;28;20021;-73
2021/07/02 01:09:44;;;;;;;7.65;4.63;;;512.60;2380.80;;;;;;5048646;28;20053;-75
2021/07/02 01:12:11;;;;;;;9.32;4.97;;;512.60;2380.80;;;;;;5047950;28;20032;-73
2021/07/02 01:14:38;;;;;;;8.30;5.63;;;512.50;2380.80;;;;;;5041136;28;20049;-73
2021/07/02 01:17:04;;;;;;;9.50;5.32;;;512.60;2380.80;;;;;;5037549;28;20080;-72
2021/07/02 01:19:29;;;;;;;8.25;6.40;;;512.60;2380.80;;;;;;5038824;28;20420;-73
2021/07/02 01:21:55;;;;;;;8.82;5.47;;;512.60;2380.80;;;;;;5039955;28;20022;-72
2021/07/02 01:24:22;;;;;;;6.32;3.97;;;512.60;2380.80;;;;;;5045985;28;20141;-74
2021/07/02 01:26:50;;;;;;;6.32;4.18;;;512.40;2380.80;;;;;;5039105;28;20060;-73
2021/07/02 01:29:17;;;;;;;3.63;2.50;;;512.40;2380.80;;;;;;5041081;28;20072;-71
2021/07/02 01:31:42;;;;;;;2.97;2.35;;;512.40;2380.80;;;;;;5040598;28;20127;-73
2021/07/02 01:34:08;;;;;;;3.65;2.50;;;512.40;2380.80;;;;;;5038267;28;20477;-74
2021/07/02 01:36:34;;;;;;;3.38;2.80;;;512.40;2380.80;;;;;;5037412;28;20043;-73
2021/07/02 01:39:00;;;;;;;6.60;2.65;;;512.30;2380.80;;;;;;5036822;28;20156;-73
2021/07/02 01:41:26;;;;;;;6.63;4.57;;;512.30;2380.80;;;;;;5036826;28;20064;-74
2021/07/02 01:43:52;;;;;;;5.47;2.78;;;512.30;2380.80;;;;;;5036648;28;20033;-74
2021/07/02 01:46:17;;;;;;;7.22;2.92;;;512.30;2380.80;;;;;;5036554;28;20060;-73
2021/07/02 01:48:45;;;;;;;4.53;2.45;;;512.40;2380.80;;;;;;5035675;28;20053;-77
2021/07/02 01:51:12;;;;;;;6.07;2.80;;;512.40;2380.80;;;;;;5035884;28;20017;-73
2021/07/02 01:53:38;;;;;;;3.35;2.15;;;512.40;2380.80;;;;;;5035862;28;20091;-74
2021/07/02 01:56:05;;;;;;;4.50;2.63;;;512.40;2380.80;;;;;;5036229;28;20490;-75
2021/07/02 01:58:31;;;;;;;3.60;2.67;;;512.40;2380.80;;;;;;5035842;28;20028;-72
2021/07/02 02:00:56;;;;;;;4.38;2.25;;;512.50;2380.80;;;;;;5035314;28;20377;-74
2021/07/02 02:03:22;;;;;;;3.60;2.42;;;512.50;2380.80;;;;;;5045483;28;20033;-74
2021/07/02 02:05:48;;;;;;;15.68;7.28;;;512.60;2380.80;;;;;;5046511;28;20215;-74
2021/07/02 02:08:15;;;;;;;5.70;3.78;;;512.60;2380.80;;;;;;5047909;28;20025;-74
2021/07/02 02:10:41;;;;;;;4.60;3.45;;;512.60;2380.80;;;;;;5027857;28;20053;-74
2021/07/02 02:13:07;;;;;;;3.03;2.22;;;512.60;2380.80;;;;;;5049047;28;20079;-73
2021/07/02 02:15:33;;;;;;;5.68;2.22;;;512.60;2380.80;;;;;;5048878;28;20033;-74
2021/07/02 02:18:00;;;;;;;4.07;3.20;;;512.60;2380.80;;;;;;5038886;28;20028;-73
2021/07/02 02:20:28;;;;;;;4.47;2.58;;;512.60;2380.80;;;;;;5035023;28;20044;-73
2021/07/02 02:22:53;;;;;;;3.97;2.35;;;512.70;2380.80;;;;;;5035455;28;20025;-74
2021/07/02 02:25:19;;;;;;;5.78;2.63;;;512.70;2380.80;;;;;;5035239;28;20037;-73
2021/07/02 02:27:48;;;;;;;5.05;2.17;;;512.70;2380.80;;;;;;5035270;28;20032;-72
2021/07/02 02:30:15;;;;;;;3.10;2.22;;;512.60;2380.80;;;;;;5034784;28;20052;-72
2021/07/02 02:32:41;;;;;;;5.60;2.53;;;512.50;2380.80;;;;;;5034722;28;20028;-73
2021/07/02 02:35:08;;;;;;;3.30;2.08;;;512.40;2380.80;;;;;;5034757;28;20056;-72
2021/07/02 02:37:34;;;;;;;3.75;2.20;;;512.40;2380.80;;;;;;5034546;28;20044;-72
2021/07/02 02:40:02;;;;;;;4.38;2.20;;;512.30;2380.80;;;;;;5034718;28;20028;-72
2021/07/02 02:42:28;;;;;;;4.60;3.17;;;512.30;2380.80;;;;;;5034810;28;20531;-73
2021/07/02 02:44:54;;;;;;;2.95;2.45;;;512.10;2380.80;;;;;;5035512;28;20042;-72
2021/07/02 02:47:20;;;;;;;4.07;2.40;;;512.10;2380.80;;;;;;5034607;28;20035;-72
2021/07/02 02:49:47;;;;;;;4.35;2.20;;;512.10;2380.80;;;;;;5034315;28;20077;-73
2021/07/02 02:52:12;;;;;;;6.55;3.00;;;512.10;2380.80;;;;;;5017017;28;20434;-73
2021/07/02 02:54:38;;;;;;;7.88;3.55;;;512.10;2380.80;;;;;;5034377;28;20064;-73
2021/07/02 02:57:07;;;;;;;4.03;2.42;;;512.10;2380.80;;;;;;5034951;28;20374;-72
2021/07/02 02:59:37;;;;;;;3.25;2.38;;;512.10;2380.80;;;;;;5034054;28;20112;-72
2021/07/02 03:02:04;;;;;;;3.55;2.42;;;512.10;2380.80;;;;;;5034054;28;20021;-73
2021/07/02 03:04:31;;;;;;;4.80;2.65;;;512.10;2380.80;;;;;;5034246;28;20048;-73
2021/07/02 03:06:57;;;;;;;6.40;2.67;;;512.10;2380.80;;;;;;5034283;28;20025;-72
2021/07/02 03:09:23;;;;;;;4.20;2.85;;;512.20;2380.80;;;;;;5033861;28;20021;-73
2021/07/02 03:11:51;;;;;;;5.30;2.42;;;512.10;2380.80;;;;;;5034035;28;20029;-78
2021/07/02 03:14:20;;;;;;;5.43;2.70;;;512.10;2380.80;;;;;;5033939;28;20460;-73
2021/07/02 03:16:48;;;;;;;3.83;2.20;;;512.10;2380.80;;;;;;5033822;28;20029;-74
2021/07/02 03:19:19;;;;;;;5.90;2.40;;;487.30;2380.80;;;;;;5034356;28;20018;-73
2021/07/02 03:21:45;;;;;;;3.92;2.25;;;487.30;2380.80;;;;;;5034059;28;20049;-73
2021/07/02 03:24:11;;;;;;;3.88;2.17;;;487.30;2380.80;;;;;;5034005;28;20528;-73
2021/07/02 03:26:37;;;;;;;5.38;2.90;;;487.30;2380.80;;;;;;5033371;28;20065;-74
2021/07/02 03:29:04;;;;;;;3.95;2.90;;;487.30;2380.80;;;;;;5030366;28;20457;-73
2021/07/02 03:31:30;;;;;;;3.92;2.50;;;487.30;2380.80;;;;;;5033696;28;20017;-73
2021/07/02 03:33:56;;;;;;;5.47;2.80;;;487.20;2380.80;;;;;;5034083;28;20357;-74
2021/07/02 03:36:22;;;;;;;5.05;2.75;;;487.20;2380.80;;;;;;5033921;28;20029;-72
2021/07/02 03:38:48;;;;;;;5.25;2.45;;;487.20;2380.80;;;;;;5033683;28;20036;-73
2021/07/02 03:41:13;;;;;;;3.58;2.58;;;487.20;2380.80;;;;;;5033730;28;20458;-73
2021/07/02 03:43:39;;;;;;;2.90;2.25;;;487.30;2380.80;;;;;;5033697;28;20036;-71
2021/07/02 03:46:05;;;;;;;3.67;2.55;;;487.30;2380.80;;;;;;5033297;28;20029;-73
2021/07/02 03:48:31;;;;;;;5.13;2.53;;;487.30;2380.80;;;;;;5033555;28;20513;-78
2021/07/02 03:50:57;;;;;;;6.43;3.28;;;512.00;2380.80;;;;;;5033657;28;20053;-72
2021/07/02 03:53:22;;;;;;;7.88;2.72;;;512.00;2380.80;;;;;;5033355;28;20037;-73
2021/07/02 03:55:49;;;;;;;3.03;2.45;;;512.10;2380.80;;;;;;5033410;28;20030;-73
2021/07/02 03:58:14;;;;;;;4.53;2.78;;;512.10;2380.80;;;;;;5033580;28;20029;-73
2021/07/02 04:00:40;;;;;;;5.35;2.63;;;512.10;2380.80;;;;;;5033313;28;20040;-72
2021/07/02 04:03:06;;;;;;;7.00;3.28;;;512.10;2380.80;;;;;;5033519;28;20026;-73
2021/07/02 04:05:32;;;;;;;4.93;2.95;;;512.10;2380.80;;;;;;5033831;28;20029;-72
2021/07/02 04:07:57;;;;;;;7.60;2.58;;;512.20;2380.80;;;;;;5033335;28;20034;-74
2021/07/02 04:10:23;;;;;;;6.82;4.07;;;512.20;2380.80;;;;;;5033364;28;20107;-74
2021/07/02 04:12:49;;;;;;;7.28;3.10;;;512.20;2380.80;;;;;;5033334;28;20029;-73
2021/07/02 04:15:15;;;;;;;7.57;2.90;;;512.20;2380.80;;;;;;5033622;28;20053;-73
2021/07/02 04:17:41;;;;;;;11.27;3.85;;;512.20;2380.80;;;;;;5033336;28;20111;-73
2021/07/02 04:20:09;;;;;;;6.88;2.97;;;512.30;2380.80;;;;;;5033281;28;20032;-73
2021/07/02 04:22:36;;;;;;;6.43;3.17;;;512.30;2380.80;;;;;;5033172;28;20463;-75
2021/07/02 04:25:04;;;;;;;5.47;2.63;;;512.40;2380.80;;;;;;5033585;28;20029;-72
2021/07/02 04:27:29;;;;;;;9.43;3.50;;;512.40;2380.80;;;;;;5033222;28;20022;-73
2021/07/02 04:29:56;;;;;;;6.00;2.83;;;512.40;2380.80;;;;;;5033405;28;20105;-73
2021/07/02 04:32:22;;;;;;;6.05;2.60;;;512.40;2380.80;;;;;;5032944;28;20469;-73
2021/07/02 04:34:48;;;;;;;3.83;2.67;;;512.40;2380.80;;;;;;5033123;28;20116;-73
2021/07/02 04:37:14;;;;;;;6.88;2.28;;;512.40;2380.80;;;;;;5033787;28;20123;-73
2021/07/02 04:39:40;;;;;;;4.57;2.08;;;512.40;2380.80;;;;;;5037326;28;20466;-73
2021/07/02 04:42:06;;;;;;;3.28;2.17;;;512.40;2380.80;;;;;;5037098;28;20021;-73
2021/07/02 04:44:35;;;;;;;2.92;2.10;;;512.30;2380.80;;;;;;5036842;28;20052;-73
2021/07/02 04:47:01;;;;;;;6.53;2.80;;;512.40;2380.80;;;;;;5037127;28;20029;-72
2021/07/02 04:49:26;;;;;;;2.80;2.50;;;512.30;2380.80;;;;;;5036640;28;20378;-74
2021/07/02 04:51:52;;;;;;;2.90;1.98;;;512.40;2380.80;;;;;;5037337;28;20028;-76
2021/07/02 04:54:18;;;;;;;5.05;2.60;;;512.50;2380.80;;;;;;5053951;28;20037;-74
2021/07/02 04:56:47;;;;;;;2.90;2.28;;;512.60;2380.80;;;;;;5059544;28;20006;-73
2021/07/02 04:59:17;;;;;;;6.60;2.42;;;512.80;2380.80;;;;;;5040783;28;20034;-75
2021/07/02 05:01:43;;;;;;;7.45;2.30;;;537.80;2406.40;;;;;;5057858;28;20018;-73
2021/07/02 05:04:10;;;;;;;2.13;1.80;;;538.10;2406.40;;;;;;5056523;28;20014;-74
2021/07/02 05:06:37;;;;;;;19.17;13.43;;;538.40;2406.40;;;;;;5027674;28;20077;-74
2021/07/02 05:09:05;;;;;;;6.13;4.32;;;538.50;2406.40;;;;;;5036433;28;20021;-76
2021/07/02 05:11:34;;;;;;;28.33;21.05;;;538.50;2406.40;;;;;;5036425;28;20025;-74
2021/07/02 05:14:02;;;;;;;9.82;6.65;;;563.30;2432.00;;;;;;5036280;28;20428;-75
2021/07/02 05:16:27;;;;;;;15.15;10.98;;;563.40;2432.00;;;;;;5036408;28;20033;-74
2021/07/02 05:18:53;;;;;;;14.35;10.27;;;563.40;2432.00;;;;;;5041330;28;20025;-76
2021/07/02 05:21:21;;;;;;;21.55;14.40;;;563.40;2432.00;;;;;;5044868;28;20112;-74
2021/07/02 05:23:47;;;;;;;22.20;14.98;;;563.40;2432.00;;;;;;5045635;28;20037;-73
2021/07/02 05:26:13;;;;;;;30.42;19.98;;;563.50;2432.00;;;;;;5045403;28;20023;-74
2021/07/02 05:28:39;;;;;;;38.00;26.75;;;563.50;2432.00;;;;;;5041398;28;20025;-73
2021/07/02 05:31:05;;;;;;;61.70;42.85;;;563.70;2432.00;;;;;;5041121;28;20022;-75
2021/07/02 05:33:32;;;;;;;32.42;16.92;;;563.90;2432.00;;;;;;5041267;28;20037;-73
2021/07/02 05:35:57;;;;;;;109.35;80.43;;;564.10;2432.00;;;;;;5040213;28;20030;-73
2021/07/02 05:38:23;;;;;;;19.33;11.13;;;588.80;2432.00;;;;;;5043719;28;20033;-73
2021/07/02 05:40:54;;;;;;;25.23;14.70;;;588.90;2432.00;;;;;;5050631;28;20386;-75
2021/07/02 05:43:24;;;;;;;25.42;16.55;;;589.10;2432.00;;;;;;5040685;28;20030;-73
2021/07/02 05:45:50;;;;;;;13.95;7.30;;;589.20;2380.80;;;;;;5039320;28;20087;-74
2021/07/02 05:48:18;;;;;;;4.57;3.40;;;589.20;2278.40;;;;;;5039029;28;20038;-73
2021/07/02 05:50:45;;;;;;;3.53;2.78;;;589.10;2278.40;;;;;;5043954;28;20052;-73
2021/07/02 05:53:12;;;;;;;3.85;2.85;;;589.10;2329.60;;;;;;5036994;28;20022;-73
2021/07/02 05:55:38;;;;;;;3.33;2.40;;;589.10;2304.00;;;;;;5050378;28;20026;-75
2021/07/02 05:58:04;;;;;;;4.10;2.65;;;589.00;2329.60;;;;;;5046735;28;20048;-74
2021/07/02 06:00:30;;;;;;;7.25;3.08;;;588.80;2432.00;;;;;;5035442;28;20424;-72
2021/07/02 06:02:55;;;;;;;7.97;2.53;;;588.80;2406.40;;;;;;5035980;28;20018;-75
2021/07/02 06:05:22;;;;;;;6.15;3.60;;;588.80;2432.00;;;;;;5035365;28;20075;-74
2021/07/02 06:07:55;;;;;;;4.57;2.75;;;588.80;2329.60;;;;;;5035664;28;20025;-73
2021/07/02 06:10:23;;;;;;;5.60;3.20;;;564.10;2355.20;;;;;;5035099;28;20031;-77
2021/07/02 06:12:50;;;;;;;5.38;2.95;;;564.10;2380.80;;;;;;5035156;28;20087;-73
2021/07/02 06:15:17;;;;;;;5.75;2.80;;;564.10;2380.80;;;;;;5035387;28;20029;-73
2021/07/02 06:17:45;;;;;;;4.38;3.20;;;588.80;2355.20;;;;;;5035396;28;20036;-74
2021/07/02 06:20:12;;;;;;;4.43;3.28;;;588.80;2432.00;;;;;;5035642;28;20021;-72
2021/07/02 06:22:39;;;;;;;3.58;3.25;;;588.80;2380.80;;;;;;5035688;28;20025;-74
2021/07/02 06:25:07;;;;;;;7.45;3.20;;;588.80;2278.40;;;;;;5035083;28;20032;-73
2021/07/02 06:27:33;;;;;;;4.07;3.53;;;588.90;2304.00;;;;;;5035042;28;20474;-73
2021/07/02 06:29:59;;;;;;;4.22;2.70;;;564.10;2278.40;;;;;;5016680;28;20520;-73
2021/07/02 06:32:25;;;;;;;4.60;2.92;;;588.80;2252.80;;;;;;5039666;28;20044;-75
2021/07/02 06:34:51;;;;;;;4.20;3.33;;;588.80;2227.20;;;;;;5041309;28;20482;-74
2021/07/02 06:37:17;;;;;;;3.92;3.20;;;588.80;2227.20;;;;;;5040934;28;20414;-73
2021/07/02 06:39:43;;;;;;;5.15;3.30;;;588.80;2278.40;;;;;;5038946;28;20022;-72
2021/07/02 06:42:08;;;;;;;4.05;2.95;;;588.90;2201.60;;;;;;5017007;28;20492;-72
2021/07/02 06:44:36;;;;;;;6.68;3.33;;;588.80;2150.40;;;;;;5034572;28;20033;-74
2021/07/02 06:47:02;;;;;;;7.13;3.85;;;588.80;2176.00;;;;;;5016884;28;20120;-73
2021/07/02 06:49:28;;;;;;;4.97;3.53;;;564.10;2227.20;;;;;;5034144;28;20045;-73
2021/07/02 06:51:54;;;;;;;5.50;3.15;;;588.80;2227.20;;;;;;5034592;28;20040;-73
2021/07/02 06:54:20;;;;;;;3.25;2.72;;;588.80;2176.00;;;;;;5034724;28;20104;-73
2021/07/02 06:57:01;;;;;;;4.40;3.13;;;564.10;2150.40;;;;;;5034571;28;20033;-73
2021/07/02 06:59:33;;;;;;;6.05;2.90;;;564.00;2150.40;;;;;;5033597;28;20398;-73
2021/07/02 07:02:00;;;;;;;3.92;2.97;;;564.10;2176.00;;;;;;5034059;28;20437;-72
2021/07/02 07:04:33;;;;;;;4.28;2.92;;;564.10;2176.00;;;;;;5034199;28;20465;-73
2021/07/02 07:06:59;;;;;;;6.38;3.03;;;564.10;2201.60;;;;;;5036900;28;20104;-73
2021/07/02 07:09:25;;;;;;;3.97;2.78;;;588.90;2227.20;;;;;;5034604;28;20461;-73
2021/07/02 07:11:51;;;;;;;3.50;3.17;;;589.00;2176.00;;;;;;5034464;28;20108;-72
2021/07/02 07:14:17;;;;;;;3.45;2.80;;;589.10;2150.40;;;;;;5033557;28;20346;-73
2021/07/02 07:16:43;;;;;;;8.23;3.38;;;589.10;2099.20;;;;;;5033913;28;20434;-73
2021/07/02 07:19:09;;;;;;;4.38;3.20;;;589.20;2073.60;;;;;;5033868;28;20040;-73
2021/07/02 07:21:34;;;;;;;4.15;2.95;;;589.20;2073.60;;;;;;5034018;28;20147;-73
2021/07/02 07:24:00;;;;;;;3.53;2.90;;;589.20;2048.00;;;;;;5033897;28;20025;-72
2021/07/02 07:26:26;;;;;;;4.10;2.60;;;589.20;2099.20;;;;;;5033731;28;20429;-75
2021/07/02 07:28:52;;;;;;;4.90;2.58;;;589.20;2099.20;;;;;;5033646;28;20021;-73
2021/07/02 07:31:17;;;;;;;2.60;2.40;;;589.30;2073.60;;;;;;5034123;28;20382;-74
2021/07/02 07:33:44;;;;;;;6.97;3.45;;;589.40;2048.00;;;;;;5033834;28;20122;-74
2021/07/02 07:36:14;;;;;;;3.40;2.70;;;589.30;2099.20;;;;;;5033792;28;20561;-73
2021/07/02 07:38:40;;;;;;;3.20;2.58;;;589.30;1996.80;;;;;;5033797;28;20057;-74
2021/07/02 07:41:06;;;;;;;3.38;2.15;;;589.30;1971.20;;;;;;5033692;28;20064;-74
2021/07/02 07:43:34;;;;;;;3.22;2.40;;;589.30;1996.80;;;;;;5034196;28;20033;-74
2021/07/02 07:46:00;;;;;;;7.60;2.88;;;589.30;1971.20;;;;;;5033769;28;20056;-74
2021/07/02 07:48:25;;;;;;;3.38;2.53;;;589.40;2048.00;;;;;;5033472;28;20057;-73
2021/07/02 07:50:54;;;;;;;4.13;2.33;;;589.40;2099.20;;;;;;5033556;28;20030;-73
2021/07/02 07:53:20;;;;;;;2.78;2.33;;;589.60;2048.00;;;;;;5033511;28;20049;-74
2021/07/02 07:55:48;;;;;;;6.90;2.28;;;614.40;1996.80;;;;;;5033304;28;20472;-73
2021/07/02 07:58:14;;;;;;;4.50;2.25;;;614.50;1945.60;;;;;;5033387;28;20017;-73
2021/07/02 08:00:40;;;;;;;2.67;1.90;;;614.40;1920.00;;;;;;5033863;28;20413;-75
2021/07/02 08:03:06;;;;;;;2.33;1.52;;;614.40;1843.20;;;;;;5033657;28;20389;-74
2021/07/02 08:05:32;;;;;;;3.65;1.83;;;614.40;1817.60;;;;;;5015503;28;20073;-74
2021/07/02 08:07:58;;;;;;;6.60;3.30;;;614.40;1817.60;;;;;;5033707;28;20066;-75
2021/07/02 08:10:26;;;;;;;10.65;3.35;;;614.50;1843.20;;;;;;5033246;28;20025;-74
2021/07/02 08:12:52;;;;;;;7.05;4.30;;;614.80;1843.20;;;;;;5036934;28;20033;-74
2021/07/02 08:15:18;;;;;;;5.30;3.03;;;614.90;1817.60;;;;;;5037587;28;20104;-74
2021/07/02 08:17:45;;;;;;;6.78;5.15;;;615.00;1843.20;;;;;;5037601;28;20064;-74
2021/07/02 08:20:12;;;;;;;3.92;1.83;;;615.00;1817.60;;;;;;5037379;28;20030;-73
2021/07/02 08:22:38;;;;;;;20.23;15.77;;;614.90;1843.20;;;;;;5037242;28;20028;-73
2021/07/02 08:25:05;;;;;;;10.88;7.07;;;615.20;1843.20;;;;;;5037383;28;20025;-74
2021/07/02 08:29:22;;;;;;;14.02;11.80;;;615.30;1817.60;;;;;;5037340;28;20029;-74
2021/07/02 08:30:20;;;;;;;9.45;3.50;;;615.30;1766.40;;;;;;5037325;28;20375;-73
2021/07/02 08:32:46;;;;;;;3.92;1.92;;;615.30;1792.00;;;;;;5036894;28;20112;-73
2021/07/02 08:35:11;;;;;;;2.33;1.98;;;615.30;1766.40;;;;;;5037200;28;20064;-74
2021/07/02 08:37:37;;;;;;;4.72;1.80;;;640.00;1740.80;;;;;;5037290;28;20168;-74
2021/07/02 08:40:03;;;;;;;2.50;1.40;;;640.20;1766.40;;;;;;5036981;28;20030;-73
2021/07/02 08:42:29;;;;;;;2.25;1.23;;;640.20;1740.80;;;;;;5036946;28;20045;-74
2021/07/02 08:44:55;;;;;;;2.38;1.42;;;640.20;1689.60;;;;;;5036881;28;20056;-73
2021/07/02 08:47:24;;;;;;;1.40;1.20;;;640.10;1689.60;;;;;;5037040;28;20053;-73
2021/07/02 08:49:50;;;;;;;4.40;1.83;;;640.10;1664.00;;;;;;5037062;28;20053;-73
2021/07/02 08:52:16;;;;;;;2.03;1.60;;;640.20;1715.20;;;;;;5036655;28;20033;-73
2021/07/02 08:54:42;;;;;;;1.23;0.98;;;640.30;1664.00;;;;;;5037061;28;20403;-75
2021/07/02 08:57:08;;;;;;;2.20;1.40;;;640.40;1638.40;;;;;;5036686;28;20385;-73
2021/07/02 08:59:34;;;;;;;4.53;1.50;;;640.40;1638.40;;;;;;5037256;28;20029;-74
2021/07/02 09:02:00;;;;;;;13.13;2.17;;;640.40;1689.60;;;;;;5037267;28;20488;-74
2021/07/02 09:04:29;;;;;;;4.38;2.75;;;640.50;1689.60;;;;;;5036694;28;20462;-74
2021/07/02 09:07:11;;;;;;;3.30;1.50;;;640.70;1664.00;;;;;;5037346;28;20033;-76
2021/07/02 09:09:56;;;;;;;5.85;1.63;;;640.90;1638.40;;;;;;5036618;28;20377;-73
2021/07/02 09:12:30;;;;;;;2.60;1.17;;;640.90;1638.40;;;;;;5036594;28;20025;-74
2021/07/02 09:15:05;;;;;;;5.20;1.65;;;665.60;1638.40;;;;;;5036544;28;20036;-73
2021/07/02 09:17:32;;;;;;;1.95;1.20;;;665.60;1638.40;;;;;;5037765;28;20075;-73
2021/07/02 09:20:09;;;;;;;6.45;2.55;;;665.60;1638.40;;;;;;5036323;28;20026;-73
2021/07/02 09:22:44;;;;;;;3.58;1.40;;;665.60;1664.00;;;;;;5036315;28;20049;-73
2021/07/02 09:25:11;;;;;;;1.92;1.20;;;665.80;1689.60;;;;;;5036065;28;20021;-74
2021/07/02 09:27:41;;;;;;;2.13;1.40;;;665.90;1638.40;;;;;;5036430;28;20037;-73
2021/07/02 09:30:13;;;;;;;2.70;1.40;;;666.10;1664.00;;;;;;5036520;28;20033;-74
2021/07/02 09:32:44;;;;;;;1.67;1.45;;;666.10;1638.40;;;;;;5036659;28;20105;-75
2021/07/02 09:35:12;;;;;;;3.20;1.88;;;666.00;1612.80;;;;;;5036784;28;20094;-74
2021/07/02 09:37:50;;;;;;;21.67;13.55;;;666.10;1664.00;;;;;;5036412;28;20024;-74
2021/07/02 09:40:23;;;;;;;93.35;68.20;;;666.20;1689.60;;;;;;5035911;28;20026;-76
2021/07/02 09:43:08;;;;;;;9.52;4.15;;;666.50;1638.40;;;;;;5035859;28;20032;-74
2021/07/02 09:45:43;;;;;;;4.18;1.67;;;691.30;1561.60;;;;;;5035596;28;20036;-74
2021/07/02 09:48:10;;;;;;;1.38;1.00;;;691.40;1561.60;;;;;;5035822;28;20518;-74
2021/07/02 09:50:41;;;;;;;2.58;1.20;;;691.40;1536.00;;;;;;5035917;28;20036;-72
2021/07/02 09:53:10;;;;;;;2.78;1.10;;;691.50;1561.60;;;;;;5018944;28;20104;-75
2021/07/02 09:55:44;;;;;;;4.32;1.30;;;691.60;1484.80;;;;;;5035936;28;20136;-73
2021/07/02 09:58:16;;;;;;;1.58;1.15;;;691.60;1510.40;;;;;;5017863;28;20363;-73
2021/07/02 10:00:42;;;;;;;2.70;1.33;;;691.40;1510.40;;;;;;5035830;28;20029;-73
2021/07/02 10:03:08;;;;;;;2.38;1.45;;;691.30;1510.40;;;;;;5036315;28;20269;-73
2021/07/02 10:05:45;;;;;;;5.13;1.20;;;691.30;1561.60;;;;;;5035972;28;20036;-74
2021/07/02 10:08:11;;;;;;;4.38;1.63;;;691.60;1510.40;;;;;;5036417;28;20022;-73
2021/07/02 10:10:37;;;;;;;5.15;2.10;;;691.60;1561.60;;;;;;5035554;28;20035;-73
2021/07/02 10:13:05;;;;;;;2.78;2.25;;;691.60;1561.60;;;;;;5036215;28;20040;-73
2021/07/02 10:15:30;;;;;;;2.40;1.38;;;691.50;1536.00;;;;;;5035299;28;20053;-72
2021/07/02 10:17:58;;;;;;;14.68;10.30;;;691.40;1536.00;;;;;;5035727;28;20080;-73
2021/07/02 10:20:29;;;;;;;8.40;5.18;;;691.20;1561.60;;;;;;5035678;28;20417;-75
2021/07/02 10:22:58;;;;;;;5.18;3.40;;;691.30;1561.60;;;;;;5035850;28;20444;-73
2021/07/02 10:25:26;;;;;;;6.38;3.67;;;666.50;1561.60;;;;;;5035204;28;20068;-73
2021/07/02 10:27:53;;;;;;;26.35;20.55;;;666.50;1561.60;;;;;;5035119;28;20018;-72
2021/07/02 10:30:19;;;;;;;5.78;3.60;;;666.50;1536.00;;;;;;5035033;28;20029;-74
2021/07/02 10:32:52;;;;;;;3.08;1.00;;;691.30;1536.00;;;;;;5035016;28;20493;-73
2021/07/02 10:35:19;;;;;;;5.90;1.67;;;691.20;1536.00;;;;;;5034785;28;20061;-74
2021/07/02 10:37:53;;;;;;;1.77;1.20;;;666.50;1536.00;;;;;;5034715;28;20538;-74
2021/07/02 10:40:38;;;;;;;4.82;1.45;;;691.20;1510.40;;;;;;5034608;28;20021;-72
2021/07/02 10:43:21;;;;;;;6.70;1.55;;;666.50;1510.40;;;;;;5034759;28;20024;-73
2021/07/02 10:46:05;;;;;;;;;;;666.50;1510.40;;;;;;5035402;28;20026;-73
2021/07/02 10:49:10;;;;;;;5.75;1.00;;;666.40;1561.60;;;;;;5034674;28;20377;-73
2021/07/02 10:51:36;;;;;;;1.88;1.02;;;666.20;1484.80;;;;;;4935482;29;20539;-73
2021/07/02 10:54:23;;;;;;;3.30;0.95;;;666.10;1459.20;;;;;;4935255;29;20043;-74
2021/07/02 10:56:49;;;;;;;1.42;0.90;;;666.00;1459.20;;;;;;4915945;29;20408;-73
2021/07/02 10:59:16;;;;;;;2.13;0.88;;;665.80;1536.00;;;;;;4916039;29;20117;-74
2021/07/02 11:02:03;;;;;;;1.65;1.08;;;665.80;1484.80;;;;;;4915919;29;20068;-75
2021/07/02 11:04:34;;;;;;;4.50;0.93;;;665.80;1459.20;;;;;;4915946;29;20036;-74
2021/07/02 11:07:25;;;;;;;4.28;0.93;;;665.80;1459.20;;;;;;4919669;29;20091;-74
2021/07/02 11:10:04;;;;;;;1.90;1.23;;;665.80;1510.40;;;;;;4929626;29;20037;-75
2021/07/02 11:12:42;;;;;;;2.65;0.93;;;665.90;1433.60;;;;;;4928492;29;20112;-74
2021/07/02 11:15:10;;;;;;;2.42;1.30;;;666.10;1382.40;;;;;;4919317;29;20402;-73
2021/07/02 11:17:38;;;;;;;11.20;6.82;;;666.20;1408.00;;;;;;4917670;29;20036;-74
2021/07/02 11:22:38;;;;;;;7.68;3.03;;;691.40;1408.00;;;;;;4915915;29;20393;-73
2021/07/02 11:25:20;;;;;;;3.03;1.35;;;691.60;1356.80;;;;;;4915778;29;20542;-75
2021/07/02 11:27:58;;;;;;;0.75;0.57;;;691.60;1382.40;;;;;;4976010;28;20039;-72
2021/07/02 11:33:10;;;;;;;2.45;1.10;;;692.10;1356.80;;;;;;4997433;28;20053;-72
2021/07/02 11:35:50;;;;;;;2.05;1.20;;;716.90;1382.40;;;;;;5033740;28;20027;-73
2021/07/02 11:38:21;;;;;;;3.10;2.45;;;717.00;1356.80;;;;;;5017209;28;20033;-76
2021/07/02 11:40:54;;;;;;;0.93;0.80;;;717.30;1408.00;;;;;;5035828;28;20021;-74
2021/07/02 11:43:41;;;;;;;1.90;1.08;;;717.50;1382.40;;;;;;5033349;28;20033;-74
2021/07/02 11:46:17;;;;;;;1.73;0.80;;;717.70;1280.00;;;;;;5033079;28;20026;-73
2021/07/02 11:49:02;;;;;;;1.80;1.20;;;742.40;1331.20;;;;;;5033375;28;20103;-73
2021/07/02 11:51:30;;;;;;;0.47;0.40;;;742.60;1280.00;;;;;;5033483;28;20026;-74
2021/07/02 11:54:04;;;;;;;1.15;0.80;;;742.70;1203.20;;;;;;5033539;28;20766;-74
2021/07/02 11:56:35;;;;;;;0.93;0.68;;;742.60;1228.80;;;;;;5033771;28;20029;-74
2021/07/02 11:59:03;;;;;;;3.40;0.90;;;742.60;1228.80;;;;;;5033551;28;20425;-75
2021/07/02 12:01:40;;;;;;;1.10;0.90;;;742.60;1254.40;;;;;;5033365;28;20539;-73
2021/07/02 12:04:09;;;;;;;1.77;1.13;;;742.40;1203.20;;;;;;5033472;28;20075;-74
2021/07/02 12:06:41;;;;;;;2.28;1.00;;;717.70;1228.80;;;;;;5033412;28;20434;-74
2021/07/02 12:09:15;;;;;;;3.65;1.27;;;742.40;1254.40;;;;;;5033495;28;20136;-74
2021/07/02 12:11:51;;;;;;;3.55;2.15;;;742.40;1254.40;;;;;;5033348;28;20026;-73
2021/07/02 12:14:37;;;;;;;15.70;13.05;;;717.70;1203.20;;;;;;5033293;28;20044;-73
2021/07/02 12:17:04;;;;;;;12.88;11.32;;;717.70;1203.20;;;;;;5033384;28;20437;-75
2021/07/02 12:19:33;;;;;;;7.63;3.75;;;742.40;1228.80;;;;;;5033310;28;20103;-74
2021/07/02 12:22:11;;;;;;;13.95;9.30;;;742.40;1305.60;;;;;;5034318;28;20489;-74
2021/07/02 12:24:49;;;;;;;4.13;1.88;;;742.60;1305.60;;;;;;5033114;28;20481;-73
2021/07/02 12:27:21;;;;;;;4.35;1.92;;;742.70;1305.60;;;;;;5033368;28;20025;-75